Time;durP1;ratioP1;P1;durP2;ratioP2;P2;SDS_P1;SDS_P2;PMS_P1;PMS_P2;Temp;Humidity;BMP_temperature;BMP_pressure;BME280_temperature;BME280_humidity;BME280_pressure;Samples;Min_cycle;Max_cycle;Signal;HPM_P1;HPM_P2
2023/05/14 00:03:21;;;;;;;7.33;3.13;;;;;;;;;;10438848;28;20051;-75
2023/05/14 00:08:22;;;;;;;7.10;2.95;;;;;;;;;;10450521;28;20111;-75
2023/05/14 00:13:22;;;;;;;6.25;3.25;;;;;;;;;;10439001;28;20634;-75
2023/05/14 00:18:22;;;;;;;5.17;2.70;;;;;;;;;;10459411;28;20021;-75
2023/05/14 00:23:23;;;;;;;5.53;3.10;;;;;;;;;;10423985;28;20074;-76
2023/05/14 00:28:23;;;;;;;6.40;3.28;;;;;;;;;;10465160;28;20024;-76
2023/05/14 00:33:23;;;;;;;5.43;3.05;;;;;;;;;;10471103;28;20430;-75
2023/05/14 00:38:26;;;;;;;6.75;3.65;;;;;;;;;;10460972;28;20104;-76
2023/05/14 00:43:26;;;;;;;5.63;3.03;;;;;;;;;;10441585;28;20025;-76
2023/05/14 00:48:27;;;;;;;4.80;2.83;;;;;;;;;;10470606;28;20819;-76
2023/05/14 00:53:27;;;;;;;3.75;2.55;;;;;;;;;;10471315;28;20039;-76
2023/05/14 00:58:27;;;;;;;3.53;2.90;;;;;;;;;;10438759;28;20040;-76
2023/05/14 01:03:29;;;;;;;7.37;2.53;;;;;;;;;;10430182;28;20115;-76
2023/05/14 01:08:35;;;;;;;6.47;2.15;;;;;;;;;;10431513;28;20278;-76
2023/05/14 01:13:50;;;;;;;4.88;2.75;;;;;;;;;;10433611;28;20458;-75
2023/05/14 01:18:51;;;;;;;5.13;2.88;;;;;;;;;;10470733;28;20029;-75
2023/05/14 01:23:51;;;;;;;4.60;2.47;;;;;;;;;;10471179;28;20443;-75
2023/05/14 01:28:52;;;;;;;5.03;2.70;;;;;;;;;;10471738;28;20328;-75
2023/05/14 01:33:54;;;;;;;5.03;2.00;;;;;;;;;;10420691;28;20049;-75
2023/05/14 01:38:55;;;;;;;7.00;2.63;;;;;;;;;;10411488;28;20422;-76
2023/05/14 01:43:56;;;;;;;5.32;2.63;;;;;;;;;;10469506;28;20021;-76
2023/05/14 01:48:56;;;;;;;4.80;2.55;;;;;;;;;;10470847;28;20505;-75
2023/05/14 01:53:56;;;;;;;6.80;2.53;;;;;;;;;;10469014;28;20040;-75
2023/05/14 01:58:56;;;;;;;5.13;2.40;;;;;;;;;;10467217;28;20116;-74
2023/05/14 02:03:57;;;;;;;4.88;2.58;;;;;;;;;;10442387;28;20341;-75
2023/05/14 02:08:57;;;;;;;3.72;2.72;;;;;;;;;;10464411;28;20636;-74
2023/05/14 02:13:57;;;;;;;5.20;2.47;;;;;;;;;;10464827;28;20455;-75
2023/05/14 02:18:58;;;;;;;4.68;2.33;;;;;;;;;;10458138;28;20020;-76
2023/05/14 02:23:58;;;;;;;4.07;2.35;;;;;;;;;;10468404;28;20452;-77
2023/05/14 02:28:58;;;;;;;3.95;2.97;;;;;;;;;;10467935;28;20021;-75
2023/05/14 02:34:03;;;;;;;4.55;2.55;;;;;;;;;;10431966;28;20112;-76
2023/05/14 02:39:03;;;;;;;4.25;2.50;;;;;;;;;;10427727;28;20024;-75
2023/05/14 02:44:04;;;;;;;3.35;2.20;;;;;;;;;;10426924;28;20020;-75
2023/05/14 02:49:04;;;;;;;6.43;2.75;;;;;;;;;;10371067;28;20068;-75
2023/05/14 02:54:04;;;;;;;3.20;2.47;;;;;;;;;;10431433;28;20032;-75
2023/05/14 02:59:05;;;;;;;7.27;3.23;;;;;;;;;;10441003;28;20151;-75
2023/05/14 03:04:05;;;;;;;4.60;2.78;;;;;;;;;;10437004;28;20024;-76
2023/05/14 03:09:06;;;;;;;9.40;2.80;;;;;;;;;;10468126;28;20040;-76
2023/05/14 03:14:06;;;;;;;4.70;2.90;;;;;;;;;;10467830;28;20025;-75
2023/05/14 03:19:07;;;;;;;3.50;2.88;;;;;;;;;;10466415;28;20394;-75
2023/05/14 03:24:07;;;;;;;3.67;2.45;;;;;;;;;;10463843;28;20025;-76
2023/05/14 03:29:09;;;;;;;6.43;2.92;;;;;;;;;;10425836;28;20025;-75
2023/05/14 03:34:10;;;;;;;9.23;3.22;;;;;;;;;;10437118;28;20044;-75
2023/05/14 03:39:10;;;;;;;7.18;3.20;;;;;;;;;;10467475;28;20028;-75
2023/05/14 03:44:10;;;;;;;5.32;3.15;;;;;;;;;;10438322;28;20550;-76
2023/05/14 03:49:11;;;;;;;6.75;3.22;;;;;;;;;;10426950;28;20622;-76
2023/05/14 03:54:11;;;;;;;9.25;3.70;;;;;;;;;;10467689;28;20025;-76
2023/05/14 03:59:11;;;;;;;5.72;3.47;;;;;;;;;;10441250;28;20380;-76
2023/05/14 04:04:11;;;;;;;7.05;3.30;;;;;;;;;;10427280;28;20630;-76
2023/05/14 04:09:12;;;;;;;8.68;3.55;;;;;;;;;;10425300;28;20402;-76
2023/05/14 04:14:12;;;;;;;4.88;3.22;;;;;;;;;;10444629;28;20458;-76
2023/05/14 04:19:12;;;;;;;4.55;3.30;;;;;;;;;;10458717;28;20047;-76
2023/05/14 04:24:13;;;;;;;4.50;3.28;;;;;;;;;;10438147;28;20128;-76
2023/05/14 04:29:13;;;;;;;4.55;2.78;;;;;;;;;;10434742;28;20020;-76
2023/05/14 04:34:13;;;;;;;5.23;2.90;;;;;;;;;;10457495;28;20325;-76
2023/05/14 04:39:18;;;;;;;4.28;2.75;;;;;;;;;;10474983;28;20464;-76
2023/05/14 04:44:18;;;;;;;6.70;3.38;;;;;;;;;;10457873;28;20021;-76
2023/05/14 04:49:19;;;;;;;3.75;2.65;;;;;;;;;;10426967;28;20807;-75
2023/05/14 04:54:20;;;;;;;6.85;3.28;;;;;;;;;;10412005;28;20029;-75
2023/05/14 04:59:21;;;;;;;4.32;3.05;;;;;;;;;;10411837;28;20491;-75
2023/05/14 05:04:22;;;;;;;4.70;2.92;;;;;;;;;;10400260;28;20079;-75
2023/05/14 05:09:23;;;;;;;5.68;2.88;;;;;;;;;;10414764;28;20032;-75
2023/05/14 05:14:23;;;;;;;7.13;3.93;;;;;;;;;;10433338;28;20031;-75
2023/05/14 05:19:23;;;;;;;4.33;3.10;;;;;;;;;;10451769;28;20455;-75
2023/05/14 05:29:34;;;;;;;6.75;3.70;;;;;;;;;;10476528;22;20072;-73
2023/05/14 05:34:35;;;;;;;8.75;4.70;;;;;;;;;;10459698;28;20107;-74
2023/05/14 05:39:35;;;;;;;11.10;6.40;;;;;;;;;;10505749;28;20130;-75
2023/05/14 05:44:36;;;;;;;9.02;5.55;;;;;;;;;;10464613;28;20431;-73
2023/05/14 05:49:36;;;;;;;11.45;5.72;;;;;;;;;;10463082;28;20414;-72
2023/05/14 05:54:38;;;;;;;10.32;5.22;;;;;;;;;;10461766;28;20110;-74
2023/05/14 05:59:39;;;;;;;6.30;4.97;;;;;;;;;;10476666;28;20059;-73
2023/05/14 06:04:39;;;;;;;9.57;5.90;;;;;;;;;;10454663;28;20012;-73
2023/05/14 06:09:39;;;;;;;7.80;5.72;;;;;;;;;;10495914;28;20017;-74
2023/05/14 06:14:40;;;;;;;9.93;6.18;;;;;;;;;;10477139;28;20016;-74
2023/05/14 06:19:40;;;;;;;9.73;6.47;;;;;;;;;;10449732;28;20025;-78
2023/05/14 06:24:40;;;;;;;9.43;5.90;;;;;;;;;;10466532;28;20044;-74
2023/05/14 06:29:41;;;;;;;11.32;5.55;;;;;;;;;;10463487;28;20268;-76
2023/05/14 06:34:41;;;;;;;15.27;5.70;;;;;;;;;;10468110;28;20028;-73
2023/05/14 06:39:48;;;;;;;17.15;8.10;;;;;;;;;;10464773;28;20465;-72
2023/05/14 06:44:48;;;;;;;14.85;7.35;;;;;;;;;;10479192;28;20497;-74
2023/05/14 06:49:49;;;;;;;13.18;7.80;;;;;;;;;;10493298;28;20077;-73
2023/05/14 06:54:49;;;;;;;15.90;8.93;;;;;;;;;;10500985;28;20095;-74
2023/05/14 06:59:49;;;;;;;10.67;7.57;;;;;;;;;;10442018;28;20025;-73
2023/05/14 07:04:50;;;;;;;14.57;8.43;;;;;;;;;;10450567;28;20416;-74
2023/05/14 07:09:50;;;;;;;15.52;9.10;;;;;;;;;;10434358;28;20121;-73
2023/05/14 07:14:50;;;;;;;15.10;9.00;;;;;;;;;;10442017;28;20062;-78
2023/05/14 07:19:51;;;;;;;19.03;10.67;;;;;;;;;;10444981;28;20031;-76
2023/05/14 07:24:51;;;;;;;21.02;11.00;;;;;;;;;;10489238;28;20557;-74
2023/05/14 07:29:52;;;;;;;17.38;8.15;;;;;;;;;;10454300;28;20075;-73
2023/05/14 07:34:52;;;;;;;21.58;9.80;;;;;;;;;;10443132;28;20094;-73
2023/05/14 07:39:52;;;;;;;10.50;7.03;;;;;;;;;;10456697;28;20478;-73
2023/05/14 07:44:53;;;;;;;12.33;7.23;;;;;;;;;;10454621;28;20863;-74
2023/05/14 07:49:54;;;;;;;13.80;8.48;;;;;;;;;;10452655;28;20041;-74
2023/05/14 07:54:58;;;;;;;13.95;8.18;;;;;;;;;;10455927;28;20017;-74
2023/05/14 07:59:59;;;;;;;15.63;8.35;;;;;;;;;;10478499;28;20043;-74
2023/05/14 08:04:59;;;;;;;20.33;10.32;;;;;;;;;;10460651;28;20121;-74
2023/05/14 08:10:00;;;;;;;21.77;12.97;;;;;;;;;;10443887;28;20036;-75
2023/05/14 08:15:01;;;;;;;17.15;9.77;;;;;;;;;;10443389;28;20051;-74
2023/05/14 08:20:01;;;;;;;16.42;9.43;;;;;;;;;;10462619;28;20028;-76
2023/05/14 08:25:02;;;;;;;13.55;7.90;;;;;;;;;;10443234;28;20106;-75
2023/05/14 08:30:03;;;;;;;15.88;7.90;;;;;;;;;;10469073;28;20032;-75
2023/05/14 08:35:03;;;;;;;13.98;7.53;;;;;;;;;;10490966;28;20031;-75
2023/05/14 08:40:04;;;;;;;12.70;6.80;;;;;;;;;;10503583;28;20032;-76
2023/05/14 08:45:05;;;;;;;15.15;8.65;;;;;;;;;;10483960;28;20267;-75
2023/05/14 08:50:07;;;;;;;15.27;7.75;;;;;;;;;;10463102;28;20024;-75
2023/05/14 08:55:07;;;;;;;18.30;8.95;;;;;;;;;;10479532;28;20020;-75
2023/05/14 09:00:10;;;;;;;12.32;7.50;;;;;;;;;;10489493;28;20028;-75
2023/05/14 09:05:11;;;;;;;10.50;7.32;;;;;;;;;;10524909;28;20028;-75
2023/05/14 09:10:11;;;;;;;12.80;7.90;;;;;;;;;;10505706;28;20021;-75
2023/05/14 09:15:11;;;;;;;11.93;6.53;;;;;;;;;;10450987;28;20043;-75
2023/05/14 09:20:12;;;;;;;13.82;8.18;;;;;;;;;;10486741;28;20438;-75
2023/05/14 09:25:12;;;;;;;12.57;7.87;;;;;;;;;;10471547;28;20106;-75
2023/05/14 09:30:13;;;;;;;11.13;6.57;;;;;;;;;;10509150;28;20772;-75
2023/05/14 09:35:17;;;;;;;12.23;7.60;;;;;;;;;;10426986;28;20456;-75
2023/05/14 09:40:19;;;;;;;12.07;8.48;;;;;;;;;;10443133;28;20028;-75
2023/05/14 09:45:19;;;;;;;11.63;7.68;;;;;;;;;;10466744;28;20025;-75
2023/05/14 09:50:20;;;;;;;10.37;7.30;;;;;;;;;;10481505;28;20483;-75
2023/05/14 09:55:21;;;;;;;18.38;8.55;;;;;;;;;;10467268;28;20021;-75
2023/05/14 10:00:22;;;;;;;10.85;6.15;;;;;;;;;;10466334;28;20074;-75
2023/05/14 10:05:23;;;;;;;8.38;5.88;;;;;;;;;;10448106;28;20839;-75
2023/05/14 10:10:27;;;;;;;8.02;5.93;;;;;;;;;;10471272;28;20020;-75
2023/05/14 10:15:38;;;;;;;11.57;7.13;;;;;;;;;;10464952;28;20091;-75
2023/05/14 10:20:40;;;;;;;12.48;7.40;;;;;;;;;;10465532;28;20032;-76
2023/05/14 10:25:41;;;;;;;12.82;8.30;;;;;;;;;;10431480;28;20052;-74
2023/05/14 10:30:45;;;;;;;13.43;7.30;;;;;;;;;;10456622;28;20029;-71
2023/05/14 10:35:54;;;;;;;13.63;7.38;;;;;;;;;;10476597;28;20171;-78
2023/05/14 18:05:38;;;;;;;45.45;27.15;;;;;;;;;;10485242;22;20045;-92
2023/05/14 18:10:43;;;;;;;38.97;20.45;;;;;;;;;;10470014;28;20129;-95
2023/05/14 18:15:43;;;;;;;29.48;16.65;;;;;;;;;;10452354;28;20043;-92
2023/05/14 18:32:19;;;;;;;21.63;13.68;;;;;;;;;;10474582;28;20025;-93
2023/05/14 18:37:29;;;;;;;23.45;13.75;;;;;;;;;;10470518;22;20091;-81
2023/05/14 18:42:30;;;;;;;22.08;13.57;;;;;;;;;;10449114;28;20028;-74
2023/05/14 18:47:32;;;;;;;27.20;14.27;;;;;;;;;;10454654;28;20548;-72
2023/05/14 18:53:10;;;;;;;27.20;14.30;;;;;;;;;;10452480;28;20777;-71
2023/05/14 18:58:14;;;;;;;23.08;13.63;;;;;;;;;;10419582;28;20399;-69
2023/05/14 19:03:15;;;;;;;22.75;14.52;;;;;;;;;;10434283;28;20383;-69
2023/05/14 19:08:15;;;;;;;30.38;15.15;;;;;;;;;;10449163;28;20028;-70
2023/05/14 19:13:15;;;;;;;25.95;14.95;;;;;;;;;;10448376;28;20162;-69
2023/05/14 19:18:16;;;;;;;26.53;15.30;;;;;;;;;;10451055;28;20432;-69
2023/05/14 19:23:18;;;;;;;26.38;15.10;;;;;;;;;;10442137;28;20434;-68
2023/05/14 19:28:25;;;;;;;25.00;14.23;;;;;;;;;;10465029;28;20040;-82
2023/05/14 19:33:26;;;;;;;24.17;13.80;;;;;;;;;;10438788;28;20498;-84
2023/05/14 19:38:26;;;;;;;22.83;12.70;;;;;;;;;;10455736;28;20139;-76
2023/05/14 19:43:27;;;;;;;26.42;15.02;;;;;;;;;;10455376;28;20047;-78
2023/05/14 19:48:27;;;;;;;26.07;14.77;;;;;;;;;;10452084;28;20106;-77
2023/05/14 19:53:30;;;;;;;24.27;13.73;;;;;;;;;;10453898;28;20283;-70
2023/05/14 19:58:31;;;;;;;17.80;10.85;;;;;;;;;;10451135;28;20028;-76
2023/05/14 20:03:32;;;;;;;17.60;10.13;;;;;;;;;;10449484;28;20079;-73
2023/05/14 20:08:32;;;;;;;17.88;10.80;;;;;;;;;;10454147;28;20492;-74
2023/05/14 20:13:34;;;;;;;18.90;11.20;;;;;;;;;;10430438;28;20040;-70
2023/05/14 20:18:35;;;;;;;22.67;14.25;;;;;;;;;;10450396;28;20772;-75
2023/05/14 20:23:35;;;;;;;27.02;15.60;;;;;;;;;;10452345;28;20040;-78
2023/05/14 20:28:36;;;;;;;31.97;15.90;;;;;;;;;;10452117;28;20037;-72
2023/05/14 20:33:39;;;;;;;29.38;17.05;;;;;;;;;;10450557;28;20103;-78
2023/05/14 20:38:41;;;;;;;23.17;13.02;;;;;;;;;;10451687;28;20084;-77
2023/05/14 20:43:41;;;;;;;18.73;12.32;;;;;;;;;;10449453;28;20083;-77
2023/05/14 20:48:42;;;;;;;20.43;13.40;;;;;;;;;;10451943;28;20510;-74
2023/05/14 20:53:42;;;;;;;15.68;10.93;;;;;;;;;;10459697;28;20534;-72
2023/05/14 20:58:52;;;;;;;17.00;9.95;;;;;;;;;;10464628;28;20029;-76
2023/05/14 21:03:53;;;;;;;14.52;10.18;;;;;;;;;;10442339;28;20045;-71
2023/05/14 21:08:54;;;;;;;11.60;7.57;;;;;;;;;;10458607;28;20495;-79
2023/05/14 21:13:54;;;;;;;11.40;7.60;;;;;;;;;;10458322;28;20285;-76
2023/05/14 21:18:54;;;;;;;15.68;8.30;;;;;;;;;;10454685;28;20025;-77
2023/05/14 21:23:55;;;;;;;11.33;7.87;;;;;;;;;;10454374;28;20571;-71
2023/05/14 21:28:55;;;;;;;13.55;7.32;;;;;;;;;;10461169;28;20259;-75
2023/05/14 21:33:56;;;;;;;10.70;7.50;;;;;;;;;;10439256;28;20118;-75
2023/05/14 21:38:56;;;;;;;13.93;9.38;;;;;;;;;;10459027;28;20032;-74
2023/05/14 21:43:56;;;;;;;11.77;8.15;;;;;;;;;;10464431;28;20040;-80
2023/05/14 21:48:57;;;;;;;11.75;8.30;;;;;;;;;;10462103;28;20025;-77
2023/05/14 21:53:57;;;;;;;13.00;8.25;;;;;;;;;;10458393;28;20406;-71
2023/05/14 21:58:57;;;;;;;11.63;6.72;;;;;;;;;;10455108;28;20404;-75
2023/05/14 22:03:58;;;;;;;12.47;7.80;;;;;;;;;;10459442;28;20075;-72
2023/05/14 22:08:58;;;;;;;16.13;8.40;;;;;;;;;;10437022;28;20060;-71
2023/05/14 22:13:58;;;;;;;11.43;8.32;;;;;;;;;;10444003;28;20289;-70
2023/05/14 22:18:59;;;;;;;12.20;8.23;;;;;;;;;;10432458;28;20033;-70
2023/05/14 22:23:59;;;;;;;12.93;8.73;;;;;;;;;;10443418;28;20259;-70
2023/05/14 22:28:59;;;;;;;15.10;9.57;;;;;;;;;;10443001;28;20047;-70
2023/05/14 22:34:01;;;;;;;15.35;8.13;;;;;;;;;;10459936;28;20734;-70
2023/05/14 22:39:01;;;;;;;11.80;8.88;;;;;;;;;;10462473;28;20020;-70
2023/05/14 22:44:01;;;;;;;12.88;8.30;;;;;;;;;;10462252;28;20545;-69
2023/05/14 22:49:02;;;;;;;14.63;9.57;;;;;;;;;;10454791;28;20051;-70
2023/05/14 22:54:02;;;;;;;12.05;8.52;;;;;;;;;;10461372;28;20394;-70
2023/05/14 22:59:03;;;;;;;12.87;7.73;;;;;;;;;;10461602;28;20060;-71
2023/05/14 23:04:03;;;;;;;9.65;6.43;;;;;;;;;;10460936;28;20032;-70
2023/05/14 23:09:04;;;;;;;12.07;6.63;;;;;;;;;;10443519;28;20036;-70
2023/05/14 23:14:04;;;;;;;10.90;6.18;;;;;;;;;;10460853;28;20029;-70
2023/05/14 23:19:05;;;;;;;12.65;7.25;;;;;;;;;;10460997;28;20081;-71
2023/05/14 23:24:06;;;;;;;11.40;6.00;;;;;;;;;;10442566;28;20033;-70
2023/05/14 23:29:06;;;;;;;10.98;6.22;;;;;;;;;;10461127;28;20282;-70
2023/05/14 23:34:07;;;;;;;8.27;5.38;;;;;;;;;;10440346;28;20043;-71
2023/05/14 23:39:07;;;;;;;8.68;5.70;;;;;;;;;;10441972;28;20036;-70
2023/05/14 23:44:07;;;;;;;8.47;5.77;;;;;;;;;;10461049;28;20036;-71
2023/05/14 23:49:08;;;;;;;7.63;5.28;;;;;;;;;;10460364;28;20024;-70
2023/05/14 23:54:08;;;;;;;11.00;5.78;;;;;;;;;;10441807;28;20045;-71
2023/05/14 23:59:09;;;;;;;8.97;6.03;;;;;;;;;;10460407;28;20415;-71
